sensor_id;sensor_type;location;lat;lon;timestamp;temperature;humidity
75838;SHT30;64480;52.040;113.502;2023-04-07T00:01:41;5.66;22.50
75838;SHT30;64480;52.040;113.502;2023-04-07T00:04:44;6.28;21.51
75838;SHT30;64480;52.040;113.502;2023-04-07T00:07:48;6.43;21.21
75838;SHT30;64480;52.040;113.502;2023-04-07T00:10:58;6.17;21.43
75838;SHT30;64480;52.040;113.502;2023-04-07T00:14:02;5.81;22.58
75838;SHT30;64480;52.040;113.502;2023-04-07T00:17:05;5.95;21.64
75838;SHT30;64480;52.040;113.502;2023-04-07T00:20:09;5.25;22.42
75838;SHT30;64480;52.040;113.502;2023-04-07T00:23:12;5.34;22.47
75838;SHT30;64480;52.040;113.502;2023-04-07T00:26:16;5.43;22.63
75838;SHT30;64480;52.040;113.502;2023-04-07T00:29:19;5.28;22.68
75838;SHT30;64480;52.040;113.502;2023-04-07T00:32:23;5.62;21.92
75838;SHT30;64480;52.040;113.502;2023-04-07T00:35:26;5.39;22.08
75838;SHT30;64480;52.040;113.502;2023-04-07T00:38:30;5.47;21.52
75838;SHT30;64480;52.040;113.502;2023-04-07T00:41:35;5.08;22.43
75838;SHT30;64480;52.040;113.502;2023-04-07T00:44:38;5.81;22.05
75838;SHT30;64480;52.040;113.502;2023-04-07T00:47:42;6.66;20.59
75838;SHT30;64480;52.040;113.502;2023-04-07T00:50:46;6.91;21.01
75838;SHT30;64480;52.040;113.502;2023-04-07T00:53:49;6.87;20.10
75838;SHT30;64480;52.040;113.502;2023-04-07T00:56:52;7.02;20.23
75838;SHT30;64480;52.040;113.502;2023-04-07T00:59:56;7.25;20.15
75838;SHT30;64480;52.040;113.502;2023-04-07T01:03:11;7.05;20.01
75838;SHT30;64480;52.040;113.502;2023-04-07T01:06:20;7.25;19.36
75838;SHT30;64480;52.040;113.502;2023-04-07T01:09:36;7.09;19.73
75838;SHT30;64480;52.040;113.502;2023-04-07T01:13:05;5.53;21.01
75838;SHT30;64480;52.040;113.502;2023-04-07T01:16:12;4.42;22.81
75838;SHT30;64480;52.040;113.502;2023-04-07T01:19:38;3.60;23.86
75838;SHT30;64480;52.040;113.502;2023-04-07T01:22:48;3.08;25.10
75838;SHT30;64480;52.040;113.502;2023-04-07T01:26:03;2.44;25.27
75838;SHT30;64480;52.040;113.502;2023-04-07T01:32:29;0.89;27.37
75838;SHT30;64480;52.040;113.502;2023-04-07T01:35:35;0.79;27.80
75838;SHT30;64480;52.040;113.502;2023-04-07T01:38:50;0.31;28.12
75838;SHT30;64480;52.040;113.502;2023-04-07T01:42:02;0.38;28.75
75838;SHT30;64480;52.040;113.502;2023-04-07T01:45:07;0.25;28.61
75838;SHT30;64480;52.040;113.502;2023-04-07T01:48:12;0.18;28.67
75838;SHT30;64480;52.040;113.502;2023-04-07T01:51:16;0.34;28.99
75838;SHT30;64480;52.040;113.502;2023-04-07T01:54:25;0.61;28.61
75838;SHT30;64480;52.040;113.502;2023-04-07T01:57:29;0.55;28.57
75838;SHT30;64480;52.040;113.502;2023-04-07T02:00:40;0.69;29.14
75838;SHT30;64480;52.040;113.502;2023-04-07T02:03:53;0.94;29.15
75838;SHT30;64480;52.040;113.502;2023-04-07T02:07:00;1.04;28.32
75838;SHT30;64480;52.040;113.502;2023-04-07T02:10:15;0.86;28.37
75838;SHT30;64480;52.040;113.502;2023-04-07T02:13:21;1.13;29.11
75838;SHT30;64480;52.040;113.502;2023-04-07T02:16:29;1.17;28.00
75838;SHT30;64480;52.040;113.502;2023-04-07T02:19:43;1.24;27.93
75838;SHT30;64480;52.040;113.502;2023-04-07T02:22:49;1.17;28.08
75838;SHT30;64480;52.040;113.502;2023-04-07T02:25:56;1.25;27.68
75838;SHT30;64480;52.040;113.502;2023-04-07T02:29:00;1.18;28.03
75838;SHT30;64480;52.040;113.502;2023-04-07T02:32:05;1.15;28.10
75838;SHT30;64480;52.040;113.502;2023-04-07T02:35:09;1.07;27.98
75838;SHT30;64480;52.040;113.502;2023-04-07T02:38:14;1.32;28.50
75838;SHT30;64480;52.040;113.502;2023-04-07T02:41:19;1.63;28.37
75838;SHT30;64480;52.040;113.502;2023-04-07T02:44:27;1.79;27.88
75838;SHT30;64480;52.040;113.502;2023-04-07T02:47:34;2.06;28.68
75838;SHT30;64480;52.040;113.502;2023-04-07T02:50:53;2.34;27.67
75838;SHT30;64480;52.040;113.502;2023-04-07T02:53:56;2.41;27.56
75838;SHT30;64480;52.040;113.502;2023-04-07T02:57:00;2.35;27.08
75838;SHT30;64480;52.040;113.502;2023-04-07T03:00:04;2.28;26.73
75838;SHT30;64480;52.040;113.502;2023-04-07T03:03:31;2.45;28.28
75838;SHT30;64480;52.040;113.502;2023-04-07T03:06:43;2.53;27.49
75838;SHT30;64480;52.040;113.502;2023-04-07T03:09:49;2.48;26.42
75838;SHT30;64480;52.040;113.502;2023-04-07T03:12:55;2.52;26.66
75838;SHT30;64480;52.040;113.502;2023-04-07T03:15:59;2.69;27.76
75838;SHT30;64480;52.040;113.502;2023-04-07T03:19:11;2.79;26.38
75838;SHT30;64480;52.040;113.502;2023-04-07T03:22:19;2.91;27.03
75838;SHT30;64480;52.040;113.502;2023-04-07T03:25:28;3.05;26.42
75838;SHT30;64480;52.040;113.502;2023-04-07T03:28:36;3.18;26.28
75838;SHT30;64480;52.040;113.502;2023-04-07T03:31:40;3.38;27.11
75838;SHT30;64480;52.040;113.502;2023-04-07T03:34:46;3.46;25.64
75838;SHT30;64480;52.040;113.502;2023-04-07T03:37:50;3.42;25.78
75838;SHT30;64480;52.040;113.502;2023-04-07T03:40:58;3.48;26.24
75838;SHT30;64480;52.040;113.502;2023-04-07T03:44:12;3.59;26.09
75838;SHT30;64480;52.040;113.502;2023-04-07T03:47:16;3.60;25.95
75838;SHT30;64480;52.040;113.502;2023-04-07T03:50:26;3.87;26.22
75838;SHT30;64480;52.040;113.502;2023-04-07T03:53:40;4.02;25.57
75838;SHT30;64480;52.040;113.502;2023-04-07T03:57:19;4.04;25.01
75838;SHT30;64480;52.040;113.502;2023-04-07T04:00:25;4.18;25.32
75838;SHT30;64480;52.040;113.502;2023-04-07T04:03:40;4.22;24.46
75838;SHT30;64480;52.040;113.502;2023-04-07T04:06:56;4.34;24.62
75838;SHT30;64480;52.040;113.502;2023-04-07T04:10:10;4.50;23.46
75838;SHT30;64480;52.040;113.502;2023-04-07T04:13:17;4.64;23.62
75838;SHT30;64480;52.040;113.502;2023-04-07T04:16:23;4.85;23.55
75838;SHT30;64480;52.040;113.502;2023-04-07T04:19:30;4.95;22.70
75838;SHT30;64480;52.040;113.502;2023-04-07T04:22:39;5.11;23.45
75838;SHT30;64480;52.040;113.502;2023-04-07T04:25:43;5.25;22.68
75838;SHT30;64480;52.040;113.502;2023-04-07T04:28:47;5.36;22.27
75838;SHT30;64480;52.040;113.502;2023-04-07T04:31:57;5.49;21.95
75838;SHT30;64480;52.040;113.502;2023-04-07T04:35:01;5.73;21.16
75838;SHT30;64480;52.040;113.502;2023-04-07T04:38:23;6.15;20.93
75838;SHT30;64480;52.040;113.502;2023-04-07T04:41:35;6.47;20.88
75838;SHT30;64480;52.040;113.502;2023-04-07T04:44:39;6.79;21.15
75838;SHT30;64480;52.040;113.502;2023-04-07T04:47:43;6.72;19.95
75838;SHT30;64480;52.040;113.502;2023-04-07T04:50:47;6.87;19.97
75838;SHT30;64480;52.040;113.502;2023-04-07T04:53:53;7.12;20.38
75838;SHT30;64480;52.040;113.502;2023-04-07T04:56:58;7.26;20.46
75838;SHT30;64480;52.040;113.502;2023-04-07T05:00:05;7.26;19.68
75838;SHT30;64480;52.040;113.502;2023-04-07T05:03:10;7.36;19.76
75838;SHT30;64480;52.040;113.502;2023-04-07T05:06:18;7.55;19.08
75838;SHT30;64480;52.040;113.502;2023-04-07T05:09:28;7.66;18.38
75838;SHT30;64480;52.040;113.502;2023-04-07T05:12:38;7.64;18.27
75838;SHT30;64480;52.040;113.502;2023-04-07T05:15:52;7.74;18.55
75838;SHT30;64480;52.040;113.502;2023-04-07T05:18:58;8.01;18.89
75838;SHT30;64480;52.040;113.502;2023-04-07T05:22:01;8.04;18.91
75838;SHT30;64480;52.040;113.502;2023-04-07T05:25:10;8.18;18.73
75838;SHT30;64480;52.040;113.502;2023-04-07T05:28:21;8.33;17.92
75838;SHT30;64480;52.040;113.502;2023-04-07T05:31:26;8.30;18.09
75838;SHT30;64480;52.040;113.502;2023-04-07T05:34:35;8.49;18.35
75838;SHT30;64480;52.040;113.502;2023-04-07T05:37:39;8.64;17.73
75838;SHT30;64480;52.040;113.502;2023-04-07T05:40:42;8.85;17.69
75838;SHT30;64480;52.040;113.502;2023-04-07T05:43:52;9.19;17.83
75838;SHT30;64480;52.040;113.502;2023-04-07T05:47:05;9.42;18.18
75838;SHT30;64480;52.040;113.502;2023-04-07T05:50:26;9.74;18.15
75838;SHT30;64480;52.040;113.502;2023-04-07T05:53:38;9.83;16.96
75838;SHT30;64480;52.040;113.502;2023-04-07T05:56:42;9.94;17.38
75838;SHT30;64480;52.040;113.502;2023-04-07T05:59:46;10.21;17.29
75838;SHT30;64480;52.040;113.502;2023-04-07T06:02:52;10.26;16.16
75838;SHT30;64480;52.040;113.502;2023-04-07T06:05:59;10.40;16.40
75838;SHT30;64480;52.040;113.502;2023-04-07T06:09:03;10.52;16.55
75838;SHT30;64480;52.040;113.502;2023-04-07T06:12:12;10.46;16.64
75838;SHT30;64480;52.040;113.502;2023-04-07T06:15:23;10.49;15.92
75838;SHT30;64480;52.040;113.502;2023-04-07T06:18:51;10.52;16.33
75838;SHT30;64480;52.040;113.502;2023-04-07T06:21:54;10.60;16.17
75838;SHT30;64480;52.040;113.502;2023-04-07T06:24:58;10.67;16.71
75838;SHT30;64480;52.040;113.502;2023-04-07T06:31:37;10.57;15.84
75838;SHT30;64480;52.040;113.502;2023-04-07T06:35:15;10.57;15.19
75838;SHT30;64480;52.040;113.502;2023-04-07T06:38:21;10.49;16.36
75838;SHT30;64480;52.040;113.502;2023-04-07T06:41:25;10.50;15.39
75838;SHT30;64480;52.040;113.502;2023-04-07T06:44:29;10.40;16.04
75838;SHT30;64480;52.040;113.502;2023-04-07T06:47:35;10.38;16.05
75838;SHT30;64480;52.040;113.502;2023-04-07T06:50:48;10.26;14.96
75838;SHT30;64480;52.040;113.502;2023-04-07T06:53:51;10.25;14.55
75838;SHT30;64480;52.040;113.502;2023-04-07T06:56:55;10.06;14.40
75838;SHT30;64480;52.040;113.502;2023-04-07T06:59:59;10.08;14.95
75838;SHT30;64480;52.040;113.502;2023-04-07T07:03:03;10.11;15.84
75838;SHT30;64480;52.040;113.502;2023-04-07T07:06:07;10.16;15.37
75838;SHT30;64480;52.040;113.502;2023-04-07T07:09:10;10.18;15.71
75838;SHT30;64480;52.040;113.502;2023-04-07T07:12:14;10.23;16.00
75838;SHT30;64480;52.040;113.502;2023-04-07T07:15:24;10.23;14.90
75838;SHT30;64480;52.040;113.502;2023-04-07T07:18:35;10.15;14.47
75838;SHT30;64480;52.040;113.502;2023-04-07T07:21:39;10.11;14.65
75838;SHT30;64480;52.040;113.502;2023-04-07T07:24:42;10.11;15.03
75838;SHT30;64480;52.040;113.502;2023-04-07T07:27:49;10.28;15.35
75838;SHT30;64480;52.040;113.502;2023-04-07T07:30:55;10.33;15.19
75838;SHT30;64480;52.040;113.502;2023-04-07T07:33:59;10.39;15.58
75838;SHT30;64480;52.040;113.502;2023-04-07T07:37:07;10.60;15.67
75838;SHT30;64480;52.040;113.502;2023-04-07T07:40:10;10.70;14.97
75838;SHT30;64480;52.040;113.502;2023-04-07T07:43:14;10.64;15.20
75838;SHT30;64480;52.040;113.502;2023-04-07T07:46:19;10.74;15.42
75838;SHT30;64480;52.040;113.502;2023-04-07T07:49:24;10.85;15.41
75838;SHT30;64480;52.040;113.502;2023-04-07T07:52:28;10.94;15.48
75838;SHT30;64480;52.040;113.502;2023-04-07T07:55:31;10.91;16.04
75838;SHT30;64480;52.040;113.502;2023-04-07T07:58:40;10.97;15.62
75838;SHT30;64480;52.040;113.502;2023-04-07T08:01:48;11.08;15.04
75838;SHT30;64480;52.040;113.502;2023-04-07T08:04:57;11.10;15.07
75838;SHT30;64480;52.040;113.502;2023-04-07T08:08:07;11.12;15.30
75838;SHT30;64480;52.040;113.502;2023-04-07T08:11:10;11.11;15.11
75838;SHT30;64480;52.040;113.502;2023-04-07T08:14:14;11.11;15.22
75838;SHT30;64480;52.040;113.502;2023-04-07T08:17:18;11.05;15.26
75838;SHT30;64480;52.040;113.502;2023-04-07T08:20:23;11.08;15.66
75838;SHT30;64480;52.040;113.502;2023-04-07T08:23:29;11.02;15.17
75838;SHT30;64480;52.040;113.502;2023-04-07T08:26:42;10.95;15.10
75838;SHT30;64480;52.040;113.502;2023-04-07T08:30:03;10.85;14.78
75838;SHT30;64480;52.040;113.502;2023-04-07T08:33:09;10.63;15.10
75838;SHT30;64480;52.040;113.502;2023-04-07T08:36:14;10.52;15.38
75838;SHT30;64480;52.040;113.502;2023-04-07T08:39:18;10.39;15.66
75838;SHT30;64480;52.040;113.502;2023-04-07T08:42:26;10.35;15.47
75838;SHT30;64480;52.040;113.502;2023-04-07T08:45:30;10.25;16.02
75838;SHT30;64480;52.040;113.502;2023-04-07T08:48:41;10.28;15.62
75838;SHT30;64480;52.040;113.502;2023-04-07T08:51:50;10.21;15.84
75838;SHT30;64480;52.040;113.502;2023-04-07T08:55:00;10.26;15.87
75838;SHT30;64480;52.040;113.502;2023-04-07T08:58:05;10.28;15.81
75838;SHT30;64480;52.040;113.502;2023-04-07T09:01:17;10.28;15.76
75838;SHT30;64480;52.040;113.502;2023-04-07T09:04:21;10.29;15.86
75838;SHT30;64480;52.040;113.502;2023-04-07T09:07:38;10.32;15.70
75838;SHT30;64480;52.040;113.502;2023-04-07T09:10:49;10.36;16.22
75838;SHT30;64480;52.040;113.502;2023-04-07T09:13:57;10.35;16.16
75838;SHT30;64480;52.040;113.502;2023-04-07T09:17:03;10.40;16.18
75838;SHT30;64480;52.040;113.502;2023-04-07T09:20:07;10.38;16.49
75838;SHT30;64480;52.040;113.502;2023-04-07T09:23:32;10.39;16.36
75838;SHT30;64480;52.040;113.502;2023-04-07T09:26:38;10.47;16.83
75838;SHT30;64480;52.040;113.502;2023-04-07T09:29:50;10.49;16.30
75838;SHT30;64480;52.040;113.502;2023-04-07T09:33:18;10.50;16.75
75838;SHT30;64480;52.040;113.502;2023-04-07T09:36:50;10.52;16.74
75838;SHT30;64480;52.040;113.502;2023-04-07T09:39:53;10.46;17.10
75838;SHT30;64480;52.040;113.502;2023-04-07T09:42:57;10.43;16.32
75838;SHT30;64480;52.040;113.502;2023-04-07T09:46:17;10.45;16.66
75838;SHT30;64480;52.040;113.502;2023-04-07T09:49:25;10.42;16.91
75838;SHT30;64480;52.040;113.502;2023-04-07T09:52:50;10.43;16.07
75838;SHT30;64480;52.040;113.502;2023-04-07T09:55:57;10.42;16.20
75838;SHT30;64480;52.040;113.502;2023-04-07T09:59:01;10.38;16.45
75838;SHT30;64480;52.040;113.502;2023-04-07T10:02:06;10.33;15.77
75838;SHT30;64480;52.040;113.502;2023-04-07T10:05:10;10.25;15.72
75838;SHT30;64480;52.040;113.502;2023-04-07T10:08:13;10.19;16.03
75838;SHT30;64480;52.040;113.502;2023-04-07T10:11:20;10.12;16.42
75838;SHT30;64480;52.040;113.502;2023-04-07T10:14:32;10.06;16.00
75838;SHT30;64480;52.040;113.502;2023-04-07T10:17:45;10.06;16.34
75838;SHT30;64480;52.040;113.502;2023-04-07T10:20:53;10.05;16.09
75838;SHT30;64480;52.040;113.502;2023-04-07T10:27:48;9.99;16.54
75838;SHT30;64480;52.040;113.502;2023-04-07T10:30:57;9.94;16.43
75838;SHT30;64480;52.040;113.502;2023-04-07T10:34:01;9.87;16.43
75838;SHT30;64480;52.040;113.502;2023-04-07T10:37:10;9.84;17.19
75838;SHT30;64480;52.040;113.502;2023-04-07T10:43:39;9.56;17.31
75838;SHT30;64480;52.040;113.502;2023-04-07T10:50:14;9.26;17.31
75838;SHT30;64480;52.040;113.502;2023-04-07T10:53:19;9.07;17.70
75838;SHT30;64480;52.040;113.502;2023-04-07T10:56:22;8.92;17.57
75838;SHT30;64480;52.040;113.502;2023-04-07T10:59:31;8.73;18.30
75838;SHT30;64480;52.040;113.502;2023-04-07T11:02:36;8.53;18.40
75838;SHT30;64480;52.040;113.502;2023-04-07T11:05:40;8.38;18.03
75838;SHT30;64480;52.040;113.502;2023-04-07T11:08:46;8.25;18.39
75838;SHT30;64480;52.040;113.502;2023-04-07T11:11:54;8.06;18.98
75838;SHT30;64480;52.040;113.502;2023-04-07T11:14:58;7.92;19.30
75838;SHT30;64480;52.040;113.502;2023-04-07T11:18:20;7.83;18.95
75838;SHT30;64480;52.040;113.502;2023-04-07T11:21:23;7.74;18.74
75838;SHT30;64480;52.040;113.502;2023-04-07T11:24:39;7.70;18.72
75838;SHT30;64480;52.040;113.502;2023-04-07T11:27:43;7.64;19.26
75838;SHT30;64480;52.040;113.502;2023-04-07T11:30:51;7.50;19.72
75838;SHT30;64480;52.040;113.502;2023-04-07T11:37:21;7.15;22.14
75838;SHT30;64480;52.040;113.502;2023-04-07T11:40:33;6.94;22.23
75838;SHT30;64480;52.040;113.502;2023-04-07T11:43:37;6.80;23.22
75838;SHT30;64480;52.040;113.502;2023-04-07T11:46:58;6.56;24.16
75838;SHT30;64480;52.040;113.502;2023-04-07T11:50:02;6.42;24.22
75838;SHT30;64480;52.040;113.502;2023-04-07T11:53:06;6.26;23.84
75838;SHT30;64480;52.040;113.502;2023-04-07T11:56:11;6.14;23.80
75838;SHT30;64480;52.040;113.502;2023-04-07T11:59:23;5.97;24.73
75838;SHT30;64480;52.040;113.502;2023-04-07T12:02:33;5.81;24.30
75838;SHT30;64480;52.040;113.502;2023-04-07T12:05:42;5.78;24.47
75838;SHT30;64480;52.040;113.502;2023-04-07T12:08:45;5.74;24.24
75838;SHT30;64480;52.040;113.502;2023-04-07T12:11:49;5.75;24.44
75838;SHT30;64480;52.040;113.502;2023-04-07T12:14:56;5.69;24.38
75838;SHT30;64480;52.040;113.502;2023-04-07T12:18:04;5.63;24.56
75838;SHT30;64480;52.040;113.502;2023-04-07T12:21:10;5.62;24.85
75838;SHT30;64480;52.040;113.502;2023-04-07T12:24:17;5.56;24.63
75838;SHT30;64480;52.040;113.502;2023-04-07T12:27:53;5.52;25.21
75838;SHT30;64480;52.040;113.502;2023-04-07T12:30:56;5.50;24.96
75838;SHT30;64480;52.040;113.502;2023-04-07T12:34:11;5.42;25.54
75838;SHT30;64480;52.040;113.502;2023-04-07T12:37:15;5.39;25.52
75838;SHT30;64480;52.040;113.502;2023-04-07T12:40:40;5.36;25.83
75838;SHT30;64480;52.040;113.502;2023-04-07T12:43:45;5.28;25.67
75838;SHT30;64480;52.040;113.502;2023-04-07T12:46:57;5.31;25.92
75838;SHT30;64480;52.040;113.502;2023-04-07T12:50:03;5.27;26.30
75838;SHT30;64480;52.040;113.502;2023-04-07T12:53:07;5.25;25.35
75838;SHT30;64480;52.040;113.502;2023-04-07T12:56:36;5.42;25.23
75838;SHT30;64480;52.040;113.502;2023-04-07T12:59:45;5.36;27.15
75838;SHT30;64480;52.040;113.502;2023-04-07T13:03:14;5.27;27.30
75838;SHT30;64480;52.040;113.502;2023-04-07T13:06:18;5.18;27.40
75838;SHT30;64480;52.040;113.502;2023-04-07T13:09:27;5.09;27.85
75838;SHT30;64480;52.040;113.502;2023-04-07T13:12:33;5.05;28.05
75838;SHT30;64480;52.040;113.502;2023-04-07T13:15:40;5.00;27.01
75838;SHT30;64480;52.040;113.502;2023-04-07T13:18:43;5.02;28.66
75838;SHT30;64480;52.040;113.502;2023-04-07T13:21:52;4.97;28.45
75838;SHT30;64480;52.040;113.502;2023-04-07T13:24:55;4.95;27.56
75838;SHT30;64480;52.040;113.502;2023-04-07T13:28:04;4.90;28.51
75838;SHT30;64480;52.040;113.502;2023-04-07T13:31:17;4.84;27.78
75838;SHT30;64480;52.040;113.502;2023-04-07T13:34:44;4.77;28.83
75838;SHT30;64480;52.040;113.502;2023-04-07T13:38:00;4.64;29.13
75838;SHT30;64480;52.040;113.502;2023-04-07T13:41:04;4.60;28.90
75838;SHT30;64480;52.040;113.502;2023-04-07T13:48:00;4.36;31.44
75838;SHT30;64480;52.040;113.502;2023-04-07T13:51:07;4.21;30.52
75838;SHT30;64480;52.040;113.502;2023-04-07T13:54:15;4.12;31.26
75838;SHT30;64480;52.040;113.502;2023-04-07T13:57:33;4.02;31.56
75838;SHT30;64480;52.040;113.502;2023-04-07T14:00:45;3.94;31.54
75838;SHT30;64480;52.040;113.502;2023-04-07T14:03:49;3.89;32.48
75838;SHT30;64480;52.040;113.502;2023-04-07T14:06:53;3.81;32.16
75838;SHT30;64480;52.040;113.502;2023-04-07T14:10:03;3.79;33.43
75838;SHT30;64480;52.040;113.502;2023-04-07T14:13:06;3.74;32.98
75838;SHT30;64480;52.040;113.502;2023-04-07T14:16:10;3.76;32.29
75838;SHT30;64480;52.040;113.502;2023-04-07T14:19:14;3.77;32.60
75838;SHT30;64480;52.040;113.502;2023-04-07T14:22:18;3.67;33.97
75838;SHT30;64480;52.040;113.502;2023-04-07T14:25:27;3.58;33.30
75838;SHT30;64480;52.040;113.502;2023-04-07T14:28:36;3.48;34.17
75838;SHT30;64480;52.040;113.502;2023-04-07T14:31:39;3.38;34.16
75838;SHT30;64480;52.040;113.502;2023-04-07T14:34:54;3.25;33.93
75838;SHT30;64480;52.040;113.502;2023-04-07T14:38:05;3.19;33.90
75838;SHT30;64480;52.040;113.502;2023-04-07T14:41:11;3.14;34.52
75838;SHT30;64480;52.040;113.502;2023-04-07T14:44:15;3.05;34.41
75838;SHT30;64480;52.040;113.502;2023-04-07T14:47:21;2.96;34.94
75838;SHT30;64480;52.040;113.502;2023-04-07T14:50:30;2.84;34.01
75838;SHT30;64480;52.040;113.502;2023-04-07T14:54:13;2.79;34.71
75838;SHT30;64480;52.040;113.502;2023-04-07T14:57:18;2.73;34.37
75838;SHT30;64480;52.040;113.502;2023-04-07T15:00:26;2.69;33.65
75838;SHT30;64480;52.040;113.502;2023-04-07T15:03:30;2.60;35.12
75838;SHT30;64480;52.040;113.502;2023-04-07T15:06:35;2.45;35.46
75838;SHT30;64480;52.040;113.502;2023-04-07T15:09:41;2.32;35.94
75838;SHT30;64480;52.040;113.502;2023-04-07T15:12:45;2.22;36.16
75838;SHT30;64480;52.040;113.502;2023-04-07T15:15:49;2.08;37.31
75838;SHT30;64480;52.040;113.502;2023-04-07T15:19:01;2.04;36.47
75838;SHT30;64480;52.040;113.502;2023-04-07T15:22:04;1.98;36.57
75838;SHT30;64480;52.040;113.502;2023-04-07T15:25:18;1.94;37.21
75838;SHT30;64480;52.040;113.502;2023-04-07T15:28:24;1.94;36.79
75838;SHT30;64480;52.040;113.502;2023-04-07T15:31:38;1.84;37.20
75838;SHT30;64480;52.040;113.502;2023-04-07T15:35:07;1.74;36.77
75838;SHT30;64480;52.040;113.502;2023-04-07T15:38:17;1.69;37.12
75838;SHT30;64480;52.040;113.502;2023-04-07T15:41:24;1.63;37.40
75838;SHT30;64480;52.040;113.502;2023-04-07T15:44:45;1.55;37.52
75838;SHT30;64480;52.040;113.502;2023-04-07T15:47:56;1.49;38.06
75838;SHT30;64480;52.040;113.502;2023-04-07T15:51:09;1.41;37.80
75838;SHT30;64480;52.040;113.502;2023-04-07T15:54:15;1.38;37.37
75838;SHT30;64480;52.040;113.502;2023-04-07T15:57:21;1.31;38.11
75838;SHT30;64480;52.040;113.502;2023-04-07T16:00:31;1.25;38.38
75838;SHT30;64480;52.040;113.502;2023-04-07T16:03:34;1.13;39.06
75838;SHT30;64480;52.040;113.502;2023-04-07T16:06:44;1.05;39.43
75838;SHT30;64480;52.040;113.502;2023-04-07T16:09:54;0.98;40.09
75838;SHT30;64480;52.040;113.502;2023-04-07T16:13:00;0.90;39.33
75838;SHT30;64480;52.040;113.502;2023-04-07T16:16:12;0.90;39.37
75838;SHT30;64480;52.040;113.502;2023-04-07T16:19:16;0.81;39.70
75838;SHT30;64480;52.040;113.502;2023-04-07T16:22:37;0.80;39.66
75838;SHT30;64480;52.040;113.502;2023-04-07T16:36:38;0.79;39.85
75838;SHT30;64480;52.040;113.502;2023-04-07T16:40:07;0.83;39.46
75838;SHT30;64480;52.040;113.502;2023-04-07T16:43:13;0.89;39.75
75838;SHT30;64480;52.040;113.502;2023-04-07T16:50:20;0.86;40.26
75838;SHT30;64480;52.040;113.502;2023-04-07T16:54:00;0.81;40.60
75838;SHT30;64480;52.040;113.502;2023-04-07T16:57:29;0.62;41.04
75838;SHT30;64480;52.040;113.502;2023-04-07T17:00:35;0.45;41.28
75838;SHT30;64480;52.040;113.502;2023-04-07T17:03:39;0.34;40.84
75838;SHT30;64480;52.040;113.502;2023-04-07T17:06:49;0.31;40.51
75838;SHT30;64480;52.040;113.502;2023-04-07T17:09:52;0.28;40.62
75838;SHT30;64480;52.040;113.502;2023-04-07T17:12:55;0.29;40.43
75838;SHT30;64480;52.040;113.502;2023-04-07T17:16:24;0.26;41.04
75838;SHT30;64480;52.040;113.502;2023-04-07T17:19:28;0.22;41.05
75838;SHT30;64480;52.040;113.502;2023-04-07T17:22:57;0.11;41.56
75838;SHT30;64480;52.040;113.502;2023-04-07T17:26:00;0.01;41.97
75838;SHT30;64480;52.040;113.502;2023-04-07T17:29:04;0.04;41.85
75838;SHT30;64480;52.040;113.502;2023-04-07T17:32:35;0.03;42.19
75838;SHT30;64480;52.040;113.502;2023-04-07T17:35:38;-0.06;42.70
75838;SHT30;64480;52.040;113.502;2023-04-07T17:38:49;-0.10;43.28
75838;SHT30;64480;52.040;113.502;2023-04-07T17:41:56;-0.21;43.98
75838;SHT30;64480;52.040;113.502;2023-04-07T17:45:06;-0.25;44.13
75838;SHT30;64480;52.040;113.502;2023-04-07T17:48:13;-0.35;44.12
75838;SHT30;64480;52.040;113.502;2023-04-07T17:51:19;-0.42;43.83
75838;SHT30;64480;52.040;113.502;2023-04-07T17:54:51;-0.48;44.05
75838;SHT30;64480;52.040;113.502;2023-04-07T17:57:54;-0.55;44.13
75838;SHT30;64480;52.040;113.502;2023-04-07T18:01:27;-0.58;43.67
75838;SHT30;64480;52.040;113.502;2023-04-07T18:04:38;-0.61;43.61
75838;SHT30;64480;52.040;113.502;2023-04-07T18:08:07;-0.59;43.42
75838;SHT30;64480;52.040;113.502;2023-04-07T18:11:14;-0.65;43.56
75838;SHT30;64480;52.040;113.502;2023-04-07T18:14:24;-0.66;44.22
75838;SHT30;64480;52.040;113.502;2023-04-07T18:17:30;-0.72;43.98
75838;SHT30;64480;52.040;113.502;2023-04-07T18:20:37;-0.76;44.38
75838;SHT30;64480;52.040;113.502;2023-04-07T18:23:40;-0.79;44.23
75838;SHT30;64480;52.040;113.502;2023-04-07T18:26:44;-0.80;44.22
75838;SHT30;64480;52.040;113.502;2023-04-07T18:29:50;-0.86;44.44
75838;SHT30;64480;52.040;113.502;2023-04-07T18:32:54;-0.89;44.67
75838;SHT30;64480;52.040;113.502;2023-04-07T18:36:19;-0.89;44.54
75838;SHT30;64480;52.040;113.502;2023-04-07T18:39:30;-0.87;45.35
75838;SHT30;64480;52.040;113.502;2023-04-07T18:42:37;-0.89;45.10
75838;SHT30;64480;52.040;113.502;2023-04-07T18:45:41;-0.92;44.80
75838;SHT30;64480;52.040;113.502;2023-04-07T18:48:45;-0.96;44.66
75838;SHT30;64480;52.040;113.502;2023-04-07T18:51:54;-0.99;44.91
75838;SHT30;64480;52.040;113.502;2023-04-07T18:55:23;-1.00;44.63
75838;SHT30;64480;52.040;113.502;2023-04-07T18:58:27;-1.04;45.13
75838;SHT30;64480;52.040;113.502;2023-04-07T19:01:34;-1.13;46.10
75838;SHT30;64480;52.040;113.502;2023-04-07T19:04:38;-1.18;46.57
75838;SHT30;64480;52.040;113.502;2023-04-07T19:07:45;-1.22;46.60
75838;SHT30;64480;52.040;113.502;2023-04-07T19:10:52;-1.25;46.87
75838;SHT30;64480;52.040;113.502;2023-04-07T19:13:56;-1.30;46.44
75838;SHT30;64480;52.040;113.502;2023-04-07T19:17:27;-1.32;46.31
75838;SHT30;64480;52.040;113.502;2023-04-07T19:20:40;-1.38;46.38
75838;SHT30;64480;52.040;113.502;2023-04-07T19:27:36;-1.42;45.93
75838;SHT30;64480;52.040;113.502;2023-04-07T19:30:47;-1.49;46.04
75838;SHT30;64480;52.040;113.502;2023-04-07T19:33:50;-1.49;47.05
75838;SHT30;64480;52.040;113.502;2023-04-07T19:36:56;-1.55;46.74
75838;SHT30;64480;52.040;113.502;2023-04-07T19:40:00;-1.60;47.18
75838;SHT30;64480;52.040;113.502;2023-04-07T19:43:04;-1.63;47.07
75838;SHT30;64480;52.040;113.502;2023-04-07T19:46:14;-1.65;46.22
75838;SHT30;64480;52.040;113.502;2023-04-07T19:49:55;-1.62;45.74
75838;SHT30;64480;52.040;113.502;2023-04-07T19:53:02;-1.65;45.12
75838;SHT30;64480;52.040;113.502;2023-04-07T19:56:11;-1.59;44.60
75838;SHT30;64480;52.040;113.502;2023-04-07T19:59:16;-1.58;44.13
75838;SHT30;64480;52.040;113.502;2023-04-07T20:02:31;-1.54;44.04
75838;SHT30;64480;52.040;113.502;2023-04-07T20:05:38;-1.51;44.33
75838;SHT30;64480;52.040;113.502;2023-04-07T20:09:12;-1.48;44.91
75838;SHT30;64480;52.040;113.502;2023-04-07T20:12:21;-1.52;46.44